Time;durP1;ratioP1;P1;durP2;ratioP2;P2;SDS_P1;SDS_P2;PMS_P1;PMS_P2;Temp;Humidity;BMP_temperature;BMP_pressure;BME280_temperature;BME280_humidity;BME280_pressure;Samples;Min_cycle;Max_cycle;Signal;HPM_P1;HPM_P2
2021/04/02 00:02:44;;;;;;;5.40;3.92;;;;;;;6.08;69.53;102348.44;10207524;28;20050;-69
2021/04/02 00:07:41;;;;;;;5.38;3.47;;;;;;;6.01;69.25;102339.63;10208339;28;20508;-71
2021/04/02 00:12:37;;;;;;;7.82;5.30;;;;;;;6.00;72.13;102335.25;10213370;28;20065;-69
2021/04/02 00:17:33;;;;;;;8.43;5.63;;;;;;;5.88;73.32;102326.34;10216065;28;20050;-70
2021/04/02 00:22:29;;;;;;;8.93;5.97;;;;;;;5.97;73.24;102330.34;10211330;28;20057;-70
2021/04/02 00:27:25;;;;;;;9.35;6.32;;;;;;;5.88;73.07;102332.59;10207533;28;20046;-70
2021/04/02 00:32:21;;;;;;;10.27;7.15;;;;;;;5.91;73.59;102334.00;10206118;28;20509;-68
2021/04/02 00:37:17;;;;;;;11.98;7.90;;;;;;;5.75;74.15;102326.66;10209675;28;20517;-68
2021/04/02 00:42:13;;;;;;;10.85;7.55;;;;;;;5.72;75.09;102327.16;10213460;28;21539;-68
2021/04/02 00:47:09;;;;;;;11.73;6.80;;;;;;;5.74;74.67;102325.03;10205423;28;20073;-67
2021/04/02 00:52:05;;;;;;;15.85;9.55;;;;;;;5.55;75.98;102332.59;10216148;28;20045;-68
2021/04/02 00:57:03;;;;;;;17.48;10.25;;;;;;;5.62;75.84;102338.69;10208108;28;20112;-69
2021/04/02 01:01:59;;;;;;;17.08;11.65;;;;;;;5.44;77.32;102343.25;10208874;28;20037;-66
2021/04/02 01:06:56;;;;;;;18.27;11.98;;;;;;;5.37;77.59;102341.75;10214053;28;20049;-67
2021/04/02 01:11:52;;;;;;;17.42;12.30;;;;;;;5.21;77.49;102332.50;10217642;28;20085;-69
2021/04/02 01:16:49;;;;;;;22.77;13.90;;;;;;;5.09;77.55;102334.44;10210420;28;20054;-69
2021/04/02 01:21:57;;;;;;;30.52;15.55;;;;;;;5.14;77.83;102332.63;10214267;28;20115;-70
2021/04/02 01:27:14;;;;;;;53.80;15.38;;;;;;;5.20;78.75;102330.88;10222355;28;20127;-71
2021/04/02 01:32:15;;;;;;;86.47;18.05;;;;;;;5.04;79.47;102316.19;10217664;28;20093;-70
2021/04/02 01:37:17;;;;;;;29.02;13.85;;;;;;;5.11;79.65;102310.63;10219005;28;20069;-70
2021/04/02 01:42:18;;;;;;;31.30;15.45;;;;;;;5.19;78.98;102308.31;10224187;28;20758;-70
2021/04/02 01:47:16;;;;;;;42.60;14.43;;;;;;;5.11;79.68;102314.16;10212950;28;20041;-71
2021/04/02 01:52:12;;;;;;;27.65;14.65;;;;;;;5.02;80.02;102304.75;10219849;28;20092;-70
2021/04/02 01:57:11;;;;;;;61.55;17.35;;;;;;;5.11;80.01;102316.84;10222377;28;20052;-70
2021/04/02 02:02:07;;;;;;;33.63;15.48;;;;;;;5.05;79.93;102306.97;10214656;28;20613;-69
2021/04/02 02:07:04;;;;;;;90.50;18.35;;;;;;;5.04;80.71;102306.16;10217656;28;20565;-69
2021/04/02 02:12:03;;;;;;;115.75;17.50;;;;;;;4.97;80.43;102305.47;10215759;28;20053;-69
2021/04/02 02:17:04;;;;;;;157.82;17.73;;;;;;;4.98;80.98;102312.53;10212146;28;20072;-70
2021/04/02 02:22:05;;;;;;;84.47;16.00;;;;;;;4.89;80.96;102318.59;10214340;28;20451;-69
2021/04/02 02:27:01;;;;;;;54.00;18.30;;;;;;;4.91;81.46;102319.16;10208853;28;20042;-70
2021/04/02 02:31:58;;;;;;;41.15;17.88;;;;;;;5.10;81.03;102315.19;10203128;28;20790;-68
2021/04/02 02:36:54;;;;;;;51.92;15.15;;;;;;;4.91;80.64;102300.19;10210589;28;20099;-68
2021/04/02 02:41:51;;;;;;;40.80;16.05;;;;;;;4.92;81.00;102290.97;10215114;28;20049;-69
2021/04/02 02:46:47;;;;;;;56.45;15.38;;;;;;;4.84;81.23;102284.06;10211581;28;20530;-69
2021/04/02 02:51:45;;;;;;;90.40;15.60;;;;;;;4.73;81.50;102283.03;10218143;28;20045;-69
2021/04/02 02:56:43;;;;;;;75.50;18.38;;;;;;;4.73;81.24;102285.75;10217531;28;20072;-68
2021/04/02 03:01:42;;;;;;;69.90;17.95;;;;;;;4.70;81.14;102278.09;10222520;28;20495;-68
2021/04/02 03:06:41;;;;;;;49.78;16.52;;;;;;;4.73;81.44;102276.78;10207190;28;20057;-69
2021/04/02 03:11:37;;;;;;;64.57;15.73;;;;;;;4.57;82.17;102267.53;10205742;28;20139;-68
2021/04/02 03:16:41;;;;;;;46.80;14.52;;;;;;;4.64;81.84;102262.78;10214112;28;20133;-68
2021/04/02 03:21:44;;;;;;;20.77;12.55;;;;;;;4.42;82.10;102255.31;10215196;28;20407;-69
2021/04/02 03:26:47;;;;;;;34.17;14.18;;;;;;;4.52;82.39;102262.00;10213726;28;20112;-68
2021/04/02 03:31:44;;;;;;;33.13;15.27;;;;;;;4.58;82.83;102264.59;10212896;28;20119;-69
2021/04/02 03:36:44;;;;;;;57.90;16.27;;;;;;;4.58;82.78;102252.94;10218911;28;20096;-68
2021/04/02 03:41:42;;;;;;;23.20;13.43;;;;;;;4.66;82.36;102249.84;10212318;28;20103;-68
2021/04/02 03:46:41;;;;;;;40.15;14.15;;;;;;;4.59;82.11;102254.56;10210843;28;20072;-69
2021/04/02 03:51:39;;;;;;;31.83;14.95;;;;;;;4.78;81.74;102253.34;10207592;28;20049;-68
2021/04/02 03:56:38;;;;;;;30.60;14.90;;;;;;;4.65;82.00;102248.19;10211698;28;20111;-69
2021/04/02 04:01:45;;;;;;;39.88;15.35;;;;;;;4.54;82.33;102257.19;10216292;28;20127;-69
2021/04/02 04:06:42;;;;;;;24.70;14.55;;;;;;;4.35;83.65;102249.22;10207585;28;20045;-68
2021/04/02 04:11:41;;;;;;;32.78;14.80;;;;;;;3.98;84.23;102256.78;10211998;28;20077;-68
2021/04/02 04:16:40;;;;;;;24.52;15.27;;;;;;;4.17;83.38;102242.03;10206840;28;20157;-69
2021/04/02 04:21:41;;;;;;;64.35;18.75;;;;;;;4.19;83.05;102249.94;10213716;28;20388;-67
2021/04/02 04:26:38;;;;;;;35.20;17.40;;;;;;;3.88;84.10;102260.09;10206615;28;20038;-69
2021/04/02 04:31:35;;;;;;;39.60;19.98;;;;;;;3.90;84.28;102257.13;10214117;28;20049;-70
2021/04/02 04:36:33;;;;;;;33.60;18.80;;;;;;;3.61;84.99;102256.19;10215546;28;20180;-69
2021/04/02 04:41:29;;;;;;;30.15;17.08;;;;;;;3.82;84.42;102250.19;10206805;28;20516;-69
2021/04/02 04:46:25;;;;;;;23.90;15.45;;;;;;;3.73;84.06;102246.19;10204402;28;20073;-68
2021/04/02 04:51:26;;;;;;;25.15;16.75;;;;;;;3.82;82.99;102247.47;10215389;28;20057;-69
2021/04/02 04:56:29;;;;;;;21.63;15.65;;;;;;;3.54;82.02;102256.28;10213259;28;20048;-70
2021/04/02 05:01:27;;;;;;;19.35;12.57;;;;;;;3.65;81.62;102243.84;10218365;28;20049;-68
2021/04/02 05:06:24;;;;;;;19.10;12.98;;;;;;;3.29;82.30;102245.66;10213447;28;20092;-69
2021/04/02 05:11:23;;;;;;;24.13;13.15;;;;;;;3.24;82.24;102248.22;10217780;28;20042;-69
2021/04/02 05:16:24;;;;;;;22.98;10.75;;;;;;;3.25;82.20;102239.03;10215751;28;20503;-68
2021/04/02 05:21:20;;;;;;;17.35;8.07;;;;;;;3.02;82.36;102237.94;10221979;28;20042;-69
2021/04/02 05:26:16;;;;;;;21.95;10.55;;;;;;;3.05;82.28;102237.47;10222905;28;20054;-68
2021/04/02 05:31:13;;;;;;;21.48;10.85;;;;;;;3.36;81.20;102240.97;10215642;28;20041;-68
2021/04/02 05:36:09;;;;;;;16.45;8.88;;;;;;;3.35;80.64;102244.72;10217501;28;20053;-68
2021/04/02 05:41:13;;;;;;;21.88;7.60;;;;;;;3.15;79.96;102256.66;10215549;28;20041;-67
2021/04/02 05:46:12;;;;;;;18.30;8.60;;;;;;;3.05;80.75;102256.38;10220931;28;20053;-67
2021/04/02 05:51:10;;;;;;;18.95;9.45;;;;;;;3.10;81.23;102264.63;10217875;28;20049;-67
2021/04/02 05:56:07;;;;;;;21.00;10.30;;;;;;;3.25;80.63;102261.53;10217196;28;20045;-67
2021/04/02 06:01:04;;;;;;;21.08;9.20;;;;;;;3.46;79.66;102257.47;10218091;28;20060;-69
2021/04/02 06:06:00;;;;;;;16.35;7.60;;;;;;;3.51;80.26;102246.75;10223963;28;20096;-69
2021/04/02 06:10:56;;;;;;;15.68;7.25;;;;;;;3.63;79.08;102252.19;10223383;28;20140;-69
2021/04/02 06:15:52;;;;;;;17.80;6.53;;;;;;;3.82;78.80;102249.38;10221381;28;20045;-69
2021/04/02 06:20:50;;;;;;;19.40;6.30;;;;;;;3.77;78.19;102247.38;10222439;28;20107;-68
2021/04/02 06:25:50;;;;;;;13.77;5.07;;;;;;;4.19;77.70;102244.53;10218353;28;20054;-68
2021/04/02 06:30:55;;;;;;;13.77;5.40;;;;;;;4.20;76.99;102249.72;10218743;28;20057;-71
2021/04/02 06:35:51;;;;;;;13.60;4.43;;;;;;;4.15;76.77;102237.94;10217677;28;20087;-71
2021/04/02 06:40:47;;;;;;;12.57;4.85;;;;;;;4.24;76.95;102236.50;10219161;28;20507;-71
2021/04/02 06:45:43;;;;;;;15.88;4.85;;;;;;;4.16;77.36;102239.59;10210468;28;20091;-69
2021/04/02 06:50:40;;;;;;;12.00;4.82;;;;;;;4.42;76.53;102243.66;10223969;28;20046;-70
2021/04/02 06:55:37;;;;;;;17.52;5.53;;;;;;;4.48;76.12;102231.03;10221392;28;20045;-71
2021/04/02 07:00:35;;;;;;;17.13;5.10;;;;;;;4.43;76.33;102235.31;10209989;28;20172;-69
2021/04/02 07:05:32;;;;;;;17.27;5.05;;;;;;;4.65;76.09;102229.22;10206501;28;20558;-70
2021/04/02 07:10:28;;;;;;;10.80;5.03;;;;;;;4.49;75.61;102232.69;10218845;28;20052;-67
2021/04/02 07:15:26;;;;;;;13.73;5.00;;;;;;;4.70;75.33;102223.91;10222836;28;20053;-67
2021/04/02 07:20:22;;;;;;;18.20;5.50;;;;;;;4.72;75.77;102232.63;10223336;28;20053;-67
2021/04/02 07:25:18;;;;;;;13.20;4.45;;;;;;;4.75;75.29;102226.72;10219023;28;20123;-69
2021/04/02 07:30:16;;;;;;;13.15;4.38;;;;;;;4.91;75.09;102218.88;10225277;28;20046;-69
2021/04/02 07:35:22;;;;;;;18.25;4.13;;;;;;;4.80;73.50;102213.28;10214829;28;20045;-69
2021/04/02 07:40:28;;;;;;;16.70;3.40;;;;;;;4.90;73.07;102211.78;10216461;28;20053;-68
2021/04/02 07:45:35;;;;;;;16.42;4.40;;;;;;;5.19;72.03;102194.44;10222615;28;20049;-70
2021/04/02 07:51:01;;;;;;;21.25;3.85;;;;;;;5.47;71.78;102190.00;10216737;28;20069;-68
2021/04/02 07:56:06;;;;;;;15.35;3.38;;;;;;;5.52;69.74;102184.66;10209864;28;20765;-68
2021/04/02 08:01:03;;;;;;;13.52;2.78;;;;;;;5.73;68.58;102155.09;10211324;28;20571;-68
2021/04/02 08:06:10;;;;;;;11.15;2.97;;;;;;;5.42;68.81;102173.66;10210087;28;20112;-67
2021/04/02 08:11:09;;;;;;;16.02;3.42;;;;;;;5.89;68.21;102175.97;10217787;28;20053;-68
2021/04/02 08:16:48;;;;;;;18.02;2.92;;;;;;;5.40;66.99;102167.66;10217630;28;20136;-68
2021/04/02 08:21:49;;;;;;;14.38;3.22;;;;;;;5.78;67.83;102155.16;10219074;28;20053;-67
2021/04/02 08:26:46;;;;;;;13.15;2.70;;;;;;;5.83;67.30;102147.13;10216224;28;20152;-67
2021/04/02 08:31:47;;;;;;;17.58;2.47;;;;;;;5.89;66.79;102160.53;10208191;28;20079;-67
2021/04/02 08:36:45;;;;;;;11.63;2.20;;;;;;;5.95;66.73;102158.72;10216577;28;20049;-68
2021/04/02 08:41:41;;;;;;;14.95;2.53;;;;;;;6.08;66.94;102154.78;10209502;28;20072;-68
2021/04/02 08:46:42;;;;;;;21.05;3.20;;;;;;;6.03;66.07;102177.25;10214585;28;20090;-68
2021/04/02 08:51:39;;;;;;;12.15;2.75;;;;;;;6.21;66.13;102180.75;10218221;28;20112;-68
2021/04/02 08:56:35;;;;;;;14.82;2.53;;;;;;;6.23;66.22;102165.03;10217765;28;20099;-68
2021/04/02 09:01:31;;;;;;;16.17;2.55;;;;;;;6.21;65.93;102164.47;10211927;28;20107;-67
2021/04/02 09:06:29;;;;;;;13.98;2.58;;;;;;;6.16;65.21;102180.69;10206935;28;20140;-67
2021/04/02 09:11:26;;;;;;;14.55;2.38;;;;;;;6.20;65.29;102179.13;10204779;28;20080;-69
2021/04/02 09:16:25;;;;;;;6.00;1.73;;;;;;;6.09;65.78;102189.84;10207207;28;20056;-66
2021/04/02 09:21:23;;;;;;;9.95;2.45;;;;;;;6.07;65.56;102183.03;10213868;28;20084;-67
2021/04/02 09:26:21;;;;;;;18.77;2.78;;;;;;;6.08;65.45;102160.22;10221166;28;20120;-67
2021/04/02 09:31:26;;;;;;;13.85;3.75;;;;;;;6.23;64.63;102154.16;10212146;28;20103;-66
2021/04/02 09:36:24;;;;;;;13.68;2.70;;;;;;;6.59;63.11;102146.41;10218180;28;20133;-68
2021/04/02 09:41:24;;;;;;;19.08;3.85;;;;;;;6.52;63.53;102147.44;10221675;28;20156;-67
2021/04/02 09:46:32;;;;;;;16.38;2.88;;;;;;;6.69;63.09;102146.53;10217703;28;20098;-67
2021/04/02 09:51:29;;;;;;;12.48;2.38;;;;;;;6.62;62.65;102152.16;10223403;28;20057;-69
2021/04/02 09:56:25;;;;;;;10.15;2.78;;;;;;;6.53;63.31;102138.22;10215389;28;20116;-69
2021/04/02 10:01:21;;;;;;;25.40;6.43;;;;;;;6.48;64.08;102132.72;10210318;28;20057;-69
2021/04/02 10:06:18;;;;;;;14.73;2.53;;;;;;;6.56;63.82;102136.06;10215421;28;20099;-69
2021/04/02 10:11:15;;;;;;;17.52;4.05;;;;;;;6.44;63.99;102128.88;10219713;28;20145;-68
2021/04/02 10:16:11;;;;;;;20.50;4.18;;;;;;;6.96;62.92;102135.63;10216875;28;20099;-67
2021/04/02 10:21:08;;;;;;;13.30;3.35;;;;;;;6.62;62.80;102129.63;10218485;28;20635;-66
2021/04/02 10:26:04;;;;;;;19.98;3.30;;;;;;;6.68;63.54;102134.00;10222923;28;20049;-67
2021/04/02 10:31:00;;;;;;;15.85;2.67;;;;;;;6.37;63.98;102128.25;10218877;28;20054;-66
2021/04/02 10:35:56;;;;;;;20.08;3.00;;;;;;;6.38;64.31;102113.56;10221438;28;20511;-66
2021/04/02 10:40:53;;;;;;;15.48;3.08;;;;;;;6.32;65.09;102136.34;10219590;28;20057;-68
2021/04/02 10:45:49;;;;;;;26.25;4.28;;;;;;;6.25;65.35;102124.88;10218911;28;20479;-68
2021/04/02 10:50:47;;;;;;;11.77;3.78;;;;;;;6.52;64.84;102114.84;10218292;28;20458;-69
2021/04/02 10:55:44;;;;;;;15.65;2.72;;;;;;;6.59;63.87;102103.78;10220065;28;20061;-68
2021/04/02 11:00:40;;;;;;;10.35;2.75;;;;;;;6.58;63.93;102102.13;10220518;28;20118;-68
2021/04/02 11:05:39;;;;;;;14.65;3.28;;;;;;;6.65;63.32;102096.47;10215965;28;20049;-68
2021/04/02 11:10:35;;;;;;;9.85;2.20;;;;;;;6.74;63.66;102092.22;10219545;28;20117;-69
2021/04/02 11:15:31;;;;;;;10.45;2.47;;;;;;;6.81;62.56;102092.81;10221802;28;20061;-68
2021/04/02 11:20:30;;;;;;;12.40;3.58;;;;;;;6.83;62.04;102076.25;10222159;28;20069;-68
2021/04/02 11:25:27;;;;;;;9.70;3.05;;;;;;;6.78;61.87;102087.06;10224625;28;20073;-68
2021/04/02 11:30:23;;;;;;;15.07;2.20;;;;;;;6.79;62.69;102059.63;10206607;28;20100;-68
2021/04/02 11:35:19;;;;;;;15.57;1.88;;;;;;;6.80;61.64;102066.72;10221694;28;20483;-68
2021/04/02 11:40:16;;;;;;;11.10;2.03;;;;;;;6.85;60.92;102045.00;10204669;28;20057;-68
2021/04/02 11:45:13;;;;;;;13.07;2.50;;;;;;;6.89;61.43;102039.84;10223308;28;20425;-68
2021/04/02 11:50:09;;;;;;;12.25;2.15;;;;;;;6.69;62.34;102051.41;10217538;28;20107;-68
2021/04/02 11:55:07;;;;;;;14.50;2.40;;;;;;;6.98;61.11;102045.63;10215654;28;20565;-68
2021/04/02 12:00:06;;;;;;;16.92;2.88;;;;;;;6.97;60.67;102049.44;10202847;28;20045;-68
2021/04/02 12:05:04;;;;;;;9.95;1.85;;;;;;;7.28;60.29;102034.94;10221401;28;20065;-68
2021/04/02 12:10:00;;;;;;;16.23;3.35;;;;;;;7.21;60.48;102049.88;10217081;28;20084;-68
2021/04/02 12:14:56;;;;;;;12.88;2.45;;;;;;;7.12;61.71;102057.69;10202632;28;20046;-68
2021/04/02 12:19:53;;;;;;;11.05;2.28;;;;;;;7.05;61.30;102040.78;10211584;28;20071;-68
2021/04/02 12:24:49;;;;;;;14.93;2.28;;;;;;;6.88;60.88;102036.31;10208743;28;20046;-68
2021/04/02 12:29:45;;;;;;;12.55;2.42;;;;;;;6.91;61.95;102019.47;10205947;28;20083;-68
2021/04/02 12:34:41;;;;;;;13.98;2.20;;;;;;;7.11;63.09;102018.81;10223717;28;20046;-68
2021/04/02 12:39:37;;;;;;;13.15;2.00;;;;;;;7.16;64.01;101998.97;10205435;28;20045;-68
2021/04/02 12:44:33;;;;;;;14.57;2.70;;;;;;;7.15;64.15;102000.06;10216648;28;20037;-68
2021/04/02 12:49:30;;;;;;;10.73;1.92;;;;;;;6.92;64.80;101993.13;10213173;28;20718;-68
2021/04/02 12:54:26;;;;;;;12.13;2.20;;;;;;;7.11;65.79;101996.22;10208303;28;20459;-68
2021/04/02 12:59:22;;;;;;;9.20;2.33;;;;;;;6.92;66.76;101988.50;10208951;28;20088;-68
2021/04/02 13:04:18;;;;;;;6.65;1.77;;;;;;;6.97;67.05;101995.06;10213962;28;20438;-68
2021/04/02 13:09:14;;;;;;;15.05;2.40;;;;;;;7.31;66.85;101979.19;10218402;28;20053;-68
2021/04/02 13:14:10;;;;;;;14.88;2.85;;;;;;;7.45;66.36;101974.06;10214635;28;20049;-68
2021/04/02 13:19:08;;;;;;;16.50;2.78;;;;;;;7.41;65.93;101979.25;10218224;28;20052;-67
2021/04/02 13:24:05;;;;;;;14.90;2.92;;;;;;;7.09;66.66;101984.78;10227199;28;20037;-68
2021/04/02 13:29:01;;;;;;;9.40;1.92;;;;;;;7.15;66.81;101986.47;10224684;28;20141;-68
2021/04/02 13:33:57;;;;;;;11.75;2.00;;;;;;;6.97;69.29;102005.94;10219823;28;20419;-68
2021/04/02 13:38:53;;;;;;;13.82;3.25;;;;;;;6.98;70.70;101993.97;10208880;28;20049;-68
2021/04/02 13:43:49;;;;;;;11.75;2.78;;;;;;;7.01;71.19;101990.72;10222938;28;20069;-68
2021/04/02 13:48:45;;;;;;;16.92;3.28;;;;;;;6.81;72.82;101986.78;10212819;28;20077;-68
2021/04/02 13:53:42;;;;;;;14.18;3.38;;;;;;;6.71;74.51;101984.81;10215335;28;20092;-68
2021/04/02 13:58:38;;;;;;;10.05;2.80;;;;;;;6.72;75.24;101982.91;10217478;28;20085;-71
2021/04/02 14:03:34;;;;;;;11.57;2.58;;;;;;;6.66;76.08;101973.06;10222328;28;20037;-70
2021/04/02 14:08:30;;;;;;;20.55;2.70;;;;;;;6.73;76.32;101973.69;10220475;28;20042;-70
2021/04/02 14:13:27;;;;;;;10.75;3.05;;;;;;;6.59;76.84;101977.91;10218339;28;20049;-68
2021/04/02 14:18:24;;;;;;;9.00;2.58;;;;;;;6.37;77.58;101976.13;10216995;28;20141;-68
2021/04/02 14:23:21;;;;;;;20.92;3.88;;;;;;;6.31;78.38;101966.28;10224269;28;20041;-68
2021/04/02 14:28:16;;;;;;;15.25;3.70;;;;;;;6.35;78.49;101951.09;10211005;28;20515;-68
2021/04/02 14:33:12;;;;;;;15.63;3.55;;;;;;;6.64;78.53;101942.66;10212202;28;20049;-70
2021/04/02 14:38:11;;;;;;;18.33;3.70;;;;;;;6.79;77.00;101950.88;10207785;28;20076;-68
2021/04/02 14:43:07;;;;;;;17.30;3.50;;;;;;;7.04;76.37;101943.97;10211775;28;20131;-68
2021/04/02 14:48:04;;;;;;;12.00;2.88;;;;;;;6.87;75.19;101946.84;10212449;28;20706;-68
2021/04/02 14:53:01;;;;;;;10.15;2.40;;;;;;;7.07;74.85;101938.00;10216229;28;20050;-67
2021/04/02 14:58:02;;;;;;;15.57;3.33;;;;;;;7.15;74.06;101926.63;10208807;28;20052;-68
2021/04/02 15:02:59;;;;;;;15.10;3.63;;;;;;;7.17;73.70;101932.59;10219323;28;20477;-68
2021/04/02 15:07:55;;;;;;;16.67;3.05;;;;;;;7.27;74.18;101924.50;10216630;28;20049;-68
2021/04/02 15:12:52;;;;;;;17.63;3.20;;;;;;;6.91;74.69;101921.59;10216324;28;20747;-68
2021/04/02 15:17:49;;;;;;;17.23;3.38;;;;;;;7.17;73.97;101919.00;10207985;28;20077;-68
2021/04/02 15:22:45;;;;;;;15.75;3.40;;;;;;;7.68;73.06;101902.88;10219986;28;20092;-66
2021/04/02 15:27:42;;;;;;;18.27;3.17;;;;;;;8.29;70.39;101891.19;10215301;28;20128;-66
2021/04/02 15:32:38;;;;;;;19.60;3.72;;;;;;;8.11;68.45;101895.25;10219277;28;20127;-67
2021/04/02 15:37:45;;;;;;;13.15;3.08;;;;;;;8.26;69.08;101882.72;10218961;28;20720;-66
2021/04/02 15:42:42;;;;;;;15.55;3.50;;;;;;;7.99;68.17;101881.09;10216407;28;20041;-66
2021/04/02 15:47:39;;;;;;;12.18;4.05;;;;;;;7.74;70.00;101896.31;10225134;28;20057;-66
2021/04/02 15:52:40;;;;;;;22.65;4.57;;;;;;;7.70;70.13;101878.88;10218535;28;20042;-66
2021/04/02 15:57:37;;;;;;;22.80;4.35;;;;;;;7.82;69.88;101875.09;10219351;28;20154;-66
2021/04/02 16:02:33;;;;;;;17.90;4.93;;;;;;;7.56;69.72;101866.88;10214958;28;20458;-67
2021/04/02 16:07:29;;;;;;;22.33;6.28;;;;;;;7.72;68.58;101854.94;10217022;28;20136;-67
2021/04/02 16:12:25;;;;;;;19.10;4.78;;;;;;;7.85;68.09;101852.78;10220634;28;20049;-66
2021/04/02 16:17:21;;;;;;;18.60;5.70;;;;;;;7.85;67.79;101852.78;10219293;28;20041;-66
2021/04/02 16:22:17;;;;;;;26.20;7.82;;;;;;;8.01;67.73;101851.69;10217275;28;20045;-66
2021/04/02 16:27:13;;;;;;;22.23;7.13;;;;;;;8.05;67.38;101843.78;10217218;28;20041;-67
2021/04/02 16:32:09;;;;;;;17.48;5.65;;;;;;;7.76;66.53;101856.03;10218728;28;20045;-67
2021/04/02 16:37:05;;;;;;;29.05;7.70;;;;;;;7.84;66.12;101851.13;10200721;28;20054;-67
2021/04/02 16:42:02;;;;;;;20.63;7.57;;;;;;;7.77;64.74;101846.78;10208819;28;20045;-67
2021/04/02 16:46:58;;;;;;;20.58;6.07;;;;;;;7.84;63.76;101845.69;10216237;28;20049;-66
2021/04/02 16:51:54;;;;;;;16.33;6.20;;;;;;;7.58;64.65;101856.53;10231564;28;20046;-67
2021/04/02 16:56:50;;;;;;;26.48;6.50;;;;;;;7.66;64.86;101856.03;10219067;28;20072;-67
2021/04/02 17:01:46;;;;;;;24.25;7.57;;;;;;;7.64;65.88;101862.84;10210738;28;20045;-67
2021/04/02 17:06:42;;;;;;;25.42;7.00;;;;;;;7.45;66.72;101857.91;10223602;28;20045;-66
2021/04/02 17:11:38;;;;;;;26.35;6.20;;;;;;;7.50;66.33;101857.09;10213106;28;20049;-67
2021/04/02 17:16:34;;;;;;;26.38;6.72;;;;;;;7.50;66.50;101851.66;10224502;28;20065;-66
2021/04/02 17:21:30;;;;;;;25.33;7.15;;;;;;;7.49;65.91;101860.88;10220623;28;20045;-66
2021/04/02 17:26:27;;;;;;;25.33;7.75;;;;;;;7.59;65.46;101860.91;10219311;28;20115;-68
2021/04/02 17:31:23;;;;;;;23.77;6.25;;;;;;;7.56;65.26;101864.16;10228802;28;20042;-67
2021/04/02 17:36:19;;;;;;;21.50;5.43;;;;;;;7.60;64.47;101862.53;10227555;28;20064;-68
2021/04/02 17:41:15;;;;;;;22.88;6.80;;;;;;;7.46;65.04;101877.75;10225130;28;20061;-68
2021/04/02 17:46:11;;;;;;;29.00;5.35;;;;;;;7.37;63.66;101878.28;10223450;28;20073;-67
2021/04/02 17:51:07;;;;;;;20.38;4.35;;;;;;;7.26;63.77;101884.75;10227218;28;20104;-67
2021/04/02 17:56:04;;;;;;;21.60;4.65;;;;;;;7.26;63.30;101878.50;10225830;28;20400;-67
2021/04/02 18:01:01;;;;;;;19.75;5.93;;;;;;;7.25;63.60;101876.88;10224056;28;20056;-68
2021/04/02 18:05:57;;;;;;;20.83;4.65;;;;;;;7.29;62.97;101888.88;10227057;28;20115;-68
2021/04/02 18:10:55;;;;;;;15.27;4.07;;;;;;;7.18;63.35;101892.63;10223628;28;20053;-67
2021/04/02 18:15:51;;;;;;;20.60;5.05;;;;;;;6.90;64.66;101908.28;10223311;28;20079;-67
2021/04/02 18:20:47;;;;;;;25.80;5.18;;;;;;;6.75;64.89;101892.69;10223176;28;20080;-67
2021/04/02 18:25:47;;;;;;;29.23;5.38;;;;;;;6.77;64.67;101904.13;10213274;28;20053;-66
2021/04/02 18:30:44;;;;;;;25.73;5.78;;;;;;;6.48;65.52;101901.78;10220369;28;20061;-66
2021/04/02 18:35:41;;;;;;;25.85;4.75;;;;;;;6.53;64.91;101904.53;10217178;28;20049;-67
2021/04/02 18:40:41;;;;;;;27.48;5.55;;;;;;;6.45;65.45;101918.59;10222945;28;20049;-66
2021/04/02 18:45:37;;;;;;;24.60;4.75;;;;;;;6.32;66.19;101929.91;10216491;28;20545;-66
2021/04/02 18:50:34;;;;;;;20.50;4.20;;;;;;;6.30;66.63;101932.88;10214069;28;20499;-66
2021/04/02 18:55:30;;;;;;;26.83;4.82;;;;;;;6.14;67.72;101930.28;10212153;28;20146;-67
2021/04/02 19:00:26;;;;;;;23.08;4.35;;;;;;;6.07;67.70;101939.47;10214925;28;20088;-67
2021/04/02 19:05:23;;;;;;;22.42;4.22;;;;;;;5.95;68.15;101949.66;10202455;28;20488;-67
2021/04/02 19:10:19;;;;;;;27.70;4.78;;;;;;;6.02;67.65;101958.44;10208826;28;20136;-66
2021/04/02 19:15:15;;;;;;;24.92;5.00;;;;;;;5.94;68.24;101950.75;10210755;28;20450;-67
2021/04/02 19:20:13;;;;;;;20.70;4.03;;;;;;;5.91;68.33;101951.22;10214935;28;20098;-66
2021/04/02 19:25:12;;;;;;;21.02;3.70;;;;;;;5.91;68.61;101962.06;10202543;28;20049;-66
2021/04/02 19:30:13;;;;;;;26.20;4.03;;;;;;;5.97;68.53;101965.72;10203657;28;20148;-68
2021/04/02 19:35:10;;;;;;;23.83;4.38;;;;;;;5.99;68.47;101964.38;10204689;28;20111;-66
2021/04/02 19:40:11;;;;;;;22.38;3.85;;;;;;;5.91;68.28;101972.94;10208903;28;20053;-66
2021/04/02 19:45:10;;;;;;;24.23;4.25;;;;;;;5.73;69.12;101970.56;10208296;28;20112;-66
2021/04/02 19:50:15;;;;;;;18.63;3.92;;;;;;;5.70;69.68;101978.13;10209071;28;20108;-66
2021/04/02 19:55:13;;;;;;;25.73;5.25;;;;;;;5.78;69.16;101978.75;10205400;28;20127;-67
2021/04/02 20:00:19;;;;;;;19.52;4.32;;;;;;;5.74;69.30;101983.88;10206507;28;20115;-67
2021/04/02 20:05:16;;;;;;;22.02;4.65;;;;;;;5.61;69.90;101987.78;10200407;28;20045;-67
2021/04/02 20:10:15;;;;;;;28.23;6.15;;;;;;;5.54;70.38;101989.88;10204416;28;20458;-67
2021/04/02 20:15:12;;;;;;;28.70;7.68;;;;;;;5.44;70.72;101995.19;10212075;28;20635;-67
2021/04/02 20:20:13;;;;;;;21.30;4.07;;;;;;;5.49;70.41;102008.81;10203024;28;20488;-67
2021/04/02 20:25:10;;;;;;;17.15;4.22;;;;;;;5.43;70.56;102013.38;10209452;28;20104;-67
2021/04/02 20:30:23;;;;;;;30.60;4.18;;;;;;;5.44;71.03;102006.03;10197000;28;20096;-67
2021/04/02 20:35:21;;;;;;;21.17;4.40;;;;;;;5.34;71.35;102016.75;10214538;28;20081;-67
2021/04/02 20:40:18;;;;;;;29.23;5.07;;;;;;;5.32;70.16;102016.19;10203734;28;20103;-67
2021/04/02 20:45:15;;;;;;;27.42;3.85;;;;;;;5.16;70.71;102015.97;10205071;28;20449;-67
2021/04/02 20:50:13;;;;;;;26.38;4.60;;;;;;;5.16;70.17;102015.97;10195272;28;20083;-67
2021/04/02 20:55:11;;;;;;;19.08;4.35;;;;;;;5.10;70.72;102014.25;10219067;28;20132;-67
2021/04/02 21:00:17;;;;;;;26.35;4.85;;;;;;;5.14;71.27;102023.53;10200266;28;20104;-67
2021/04/02 21:05:13;;;;;;;21.98;4.43;;;;;;;5.25;70.12;102036.19;10198182;28;20045;-67
2021/04/02 21:10:10;;;;;;;24.42;3.20;;;;;;;5.15;70.63;102030.63;10210485;28;20107;-67
2021/04/02 21:15:08;;;;;;;26.90;4.35;;;;;;;5.33;69.58;102042.25;10200285;28;20462;-68
2021/04/02 21:20:05;;;;;;;19.60;3.33;;;;;;;5.34;69.99;102043.88;10194202;28;20045;-68
2021/04/02 21:25:03;;;;;;;16.73;3.22;;;;;;;5.24;70.03;102045.41;10199716;28;20557;-67
2021/04/02 21:30:02;;;;;;;28.45;3.28;;;;;;;5.40;70.34;102042.88;10196582;28;20053;-67
2021/04/02 21:35:00;;;;;;;21.90;3.92;;;;;;;5.15;71.02;102055.03;10201947;28;20141;-67
2021/04/02 21:39:56;;;;;;;28.20;4.07;;;;;;;5.14;71.08;102056.06;10209119;28;20478;-66
2021/04/02 21:44:52;;;;;;;19.95;3.72;;;;;;;5.13;70.91;102057.16;10206366;28;20045;-66
2021/04/02 21:49:50;;;;;;;23.02;3.67;;;;;;;5.02;71.32;102063.50;10213609;28;20049;-67
2021/04/02 21:54:46;;;;;;;21.42;3.92;;;;;;;5.10;71.69;102064.94;10212243;28;20053;-66
2021/04/02 21:59:42;;;;;;;21.55;4.00;;;;;;;5.03;71.16;102075.97;10215727;28;20041;-65
2021/04/02 22:04:38;;;;;;;29.80;4.25;;;;;;;5.02;71.54;102068.91;10215902;28;20119;-66
2021/04/02 22:09:34;;;;;;;31.30;4.70;;;;;;;4.81;72.16;102062.34;10221885;28;20465;-71
2021/04/02 22:14:30;;;;;;;21.60;4.05;;;;;;;4.87;72.40;102071.38;10217924;28;20077;-68
2021/04/02 22:19:26;;;;;;;21.02;4.20;;;;;;;4.69;72.86;102065.13;10215688;28;20049;-68
2021/04/02 22:24:42;;;;;;;29.77;4.40;;;;;;;4.70;73.32;102060.53;10204950;28;20049;-71
2021/04/02 22:29:39;;;;;;;26.27;4.00;;;;;;;4.63;73.77;102071.50;10205900;28;20132;-70
2021/04/02 22:34:45;;;;;;;25.73;4.35;;;;;;;4.55;73.55;102072.75;10211244;28;20057;-69
2021/04/02 22:39:41;;;;;;;23.63;4.07;;;;;;;4.53;73.59;102074.88;10209049;28;20042;-70
2021/04/02 22:44:37;;;;;;;28.70;5.15;;;;;;;4.59;73.65;102073.06;10207377;28;20037;-70
2021/04/02 22:49:34;;;;;;;30.40;5.38;;;;;;;4.56;74.16;102068.97;10212422;28;20136;-70